createdAt,value
2023-01-23T00:02:15.095Z,16.13
2023-01-23T00:05:17.144Z,17.85
2023-01-23T00:08:19.167Z,17.48
2023-01-23T00:11:23.958Z,19.10
2023-01-23T00:14:26.008Z,19.00
2023-01-23T00:17:28.040Z,18.95
2023-01-23T00:20:30.078Z,19.90
2023-01-23T00:23:34.502Z,20.55
2023-01-23T00:26:36.547Z,18.42
2023-01-23T00:29:38.673Z,21.35
2023-01-23T00:32:40.684Z,21.00
2023-01-23T00:35:42.657Z,20.30
2023-01-23T00:38:46.870Z,20.42
2023-01-23T00:41:50.286Z,19.65
2023-01-23T00:44:52.812Z,19.20
2023-01-23T00:47:54.780Z,20.45
2023-01-23T00:50:56.914Z,17.50
2023-01-23T00:53:59.046Z,16.25
2023-01-23T00:57:01.292Z,18.23
2023-01-23T01:00:04.254Z,19.05
2023-01-23T01:03:07.466Z,17.33
2023-01-23T01:06:10.669Z,20.13
2023-01-23T01:09:13.001Z,19.27
2023-01-23T01:12:14.945Z,18.23
2023-01-23T01:15:16.983Z,17.50
2023-01-23T01:18:19.601Z,19.00
2023-01-23T01:21:22.161Z,20.75
2023-01-23T01:24:24.815Z,20.05
2023-01-23T01:27:28.847Z,21.27
2023-01-23T01:30:31.483Z,19.92
2023-01-23T01:33:34.700Z,19.85
2023-01-23T01:36:36.725Z,19.95
2023-01-23T01:39:38.723Z,18.73
2023-01-23T01:42:48.452Z,23.73
2023-01-23T01:46:23.249Z,23.15
2023-01-23T01:49:32.822Z,20.95
2023-01-23T01:52:35.524Z,18.92
2023-01-23T01:55:39.408Z,20.20
2023-01-23T01:58:44.671Z,22.10
2023-01-23T02:01:48.935Z,21.77
2023-01-23T02:04:55.745Z,19.92
2023-01-23T02:08:01.413Z,19.60
2023-01-23T02:11:03.682Z,21.92
2023-01-23T02:14:07.334Z,18.33
2023-01-23T02:17:10.549Z,18.23
2023-01-23T02:23:37.607Z,21.85
2023-01-23T02:26:46.380Z,19.92
2023-01-23T02:33:23.338Z,19.65
2023-01-23T02:36:34.523Z,17.60
2023-01-23T02:39:38.702Z,17.80
2023-01-23T02:42:43.095Z,19.95
2023-01-23T02:45:48.647Z,19.33
2023-01-23T02:48:51.367Z,21.17
2023-01-23T02:51:54.143Z,19.70
2023-01-23T02:54:57.003Z,18.25
2023-01-23T02:58:00.496Z,20.73
2023-01-23T03:01:05.665Z,20.88
2023-01-23T03:04:07.798Z,17.70
2023-01-23T03:07:10.180Z,19.15
2023-01-23T03:13:18.357Z,18.50
2023-01-23T03:16:20.410Z,20.20
2023-01-23T03:19:24.576Z,19.08
2023-01-23T03:22:27.092Z,19.73
2023-01-23T03:25:29.088Z,19.45
2023-01-23T03:28:31.122Z,17.55
2023-01-23T03:31:33.167Z,19.80
2023-01-23T03:34:35.994Z,17.20
2023-01-23T03:37:38.916Z,19.17
2023-01-23T03:40:40.914Z,17.55
2023-01-23T03:43:44.287Z,16.17
2023-01-23T03:46:51.962Z,17.23
2023-01-23T03:49:54.133Z,19.00
2023-01-23T03:52:56.343Z,19.45
2023-01-23T03:55:58.486Z,22.02
2023-01-23T03:59:01.239Z,17.30
2023-01-23T04:02:04.424Z,18.25
2023-01-23T04:05:07.094Z,19.40
2023-01-23T04:08:09.159Z,20.23
2023-01-23T04:11:12.946Z,19.58
2023-01-23T04:14:17.015Z,20.65
2023-01-23T04:17:19.154Z,17.73
2023-01-23T04:20:21.492Z,18.17
2023-01-23T04:23:24.582Z,20.13
2023-01-23T04:26:27.416Z,21.35
2023-01-23T04:29:29.575Z,17.60
2023-01-23T04:32:32.497Z,16.52
2023-01-23T04:35:35.268Z,18.33
2023-01-23T04:38:37.948Z,19.27
2023-01-23T04:41:52.200Z,15.95
2023-01-23T04:45:18.237Z,19.45
2023-01-23T04:48:58.689Z,16.10
2023-01-23T04:52:01.626Z,14.07
2023-01-23T04:55:07.482Z,17.23
2023-01-23T04:58:09.752Z,15.30
2023-01-23T05:01:14.469Z,15.75
2023-01-23T05:04:16.576Z,17.58
2023-01-23T05:07:20.120Z,17.98
2023-01-23T05:10:38.564Z,16.08
2023-01-23T05:13:43.200Z,15.55
2023-01-23T05:16:45.275Z,18.13
2023-01-23T05:19:54.873Z,16.23
2023-01-23T05:22:58.670Z,16.73
2023-01-23T05:26:23.707Z,18.45
2023-01-23T05:29:25.854Z,18.50
2023-01-23T05:32:36.843Z,22.17
2023-01-23T05:35:49.952Z,13.93
2023-01-23T05:38:52.095Z,16.00
2023-01-23T05:41:55.058Z,13.63
2023-01-23T05:44:56.991Z,16.00
2023-01-23T05:48:06.280Z,14.32
2023-01-23T05:51:08.500Z,15.05
2023-01-23T05:54:11.176Z,14.68
2023-01-23T05:57:17.224Z,14.88
2023-01-23T06:00:42.771Z,14.52
2023-01-23T06:04:07.201Z,15.93
2023-01-23T06:07:38.430Z,14.07
2023-01-23T06:10:45.905Z,16.60
2023-01-23T06:13:49.281Z,15.70
2023-01-23T06:16:51.592Z,15.52
2023-01-23T06:19:55.862Z,14.98
2023-01-23T06:22:58.105Z,16.65
2023-01-23T06:26:03.161Z,16.10
2023-01-23T06:29:06.495Z,16.67
2023-01-23T06:32:08.562Z,16.60
2023-01-23T06:35:10.862Z,16.55
2023-01-23T06:38:16.097Z,15.38
2023-01-23T06:41:19.919Z,15.95
2023-01-23T06:44:27.436Z,14.35
2023-01-23T06:47:30.678Z,14.95
2023-01-23T06:50:35.691Z,18.27
2023-01-23T06:53:38.221Z,16.05
2023-01-23T06:56:43.154Z,15.30
2023-01-23T06:59:46.691Z,15.48
2023-01-23T07:02:50.655Z,14.98
2023-01-23T07:05:52.865Z,16.27
2023-01-23T07:08:55.361Z,16.50
2023-01-23T07:11:58.119Z,15.27
2023-01-23T07:15:00.471Z,15.48
2023-01-23T07:18:10.368Z,15.50
2023-01-23T07:21:12.449Z,14.93
2023-01-23T07:24:14.594Z,16.73
2023-01-23T07:27:16.621Z,15.90
2023-01-23T07:30:19.389Z,16.77
2023-01-23T07:33:21.723Z,15.65
2023-01-23T07:36:23.665Z,14.02
2023-01-23T07:39:25.966Z,15.23
2023-01-23T07:42:28.403Z,16.80
2023-01-23T07:45:30.463Z,14.82
2023-01-23T07:48:32.613Z,16.70
2023-01-23T07:51:35.196Z,15.05
2023-01-23T07:54:37.177Z,17.05
2023-01-23T07:57:39.339Z,16.65
2023-01-23T08:00:41.310Z,13.90
2023-01-23T08:03:43.502Z,14.05
2023-01-23T08:06:45.794Z,18.23
2023-01-23T08:09:47.771Z,16.75
2023-01-23T08:12:49.774Z,13.73
2023-01-23T08:15:51.652Z,16.35
2023-01-23T08:18:54.038Z,13.95
2023-01-23T08:21:56.152Z,16.20
2023-01-23T08:24:58.691Z,17.60
2023-01-23T08:28:00.676Z,17.63
2023-01-23T08:31:06.681Z,15.52
2023-01-23T08:34:08.989Z,16.40
2023-01-23T08:37:11.003Z,16.92
2023-01-23T08:40:13.418Z,16.33
2023-01-23T08:43:18.250Z,15.23
2023-01-23T08:46:20.475Z,18.63
2023-01-23T08:49:22.564Z,17.83
2023-01-23T08:52:27.581Z,17.73
2023-01-23T08:55:30.233Z,15.85
2023-01-23T08:58:32.638Z,16.30
2023-01-23T09:01:34.822Z,16.90
2023-01-23T09:04:39.366Z,16.25
2023-01-23T09:07:42.386Z,16.58
2023-01-23T09:10:45.158Z,15.10
2023-01-23T09:13:47.259Z,15.60
2023-01-23T09:16:49.484Z,15.63
2023-01-23T09:19:52.121Z,15.32
2023-01-23T09:22:54.105Z,20.42
2023-01-23T09:25:56.151Z,17.25
2023-01-23T09:28:58.096Z,17.95
2023-01-23T09:32:00.290Z,15.90
2023-01-23T09:35:02.777Z,16.13
2023-01-23T09:38:05.080Z,18.52
2023-01-23T09:41:16.315Z,15.43
2023-01-23T09:44:20.430Z,14.98
2023-01-23T09:47:42.592Z,15.77
2023-01-23T09:50:54.370Z,15.43
2023-01-23T09:54:17.301Z,19.08
2023-01-23T09:57:33.164Z,14.48
2023-01-23T10:00:35.102Z,16.38
2023-01-23T10:03:37.866Z,16.52
2023-01-23T10:07:12.818Z,17.75
2023-01-23T10:10:14.805Z,17.25
2023-01-23T10:13:33.052Z,14.90
2023-01-23T10:17:04.027Z,16.35
2023-01-23T10:20:20.137Z,17.88
2023-01-23T10:23:40.671Z,16.83
2023-01-23T10:26:46.444Z,15.63
2023-01-23T10:30:03.510Z,14.65
2023-01-23T10:33:17.605Z,13.20
2023-01-23T10:36:53.860Z,12.45
2023-01-23T10:40:01.620Z,11.88
2023-01-23T10:43:03.900Z,13.50
2023-01-23T10:46:18.172Z,10.77
2023-01-23T10:49:33.381Z,13.32
2023-01-23T10:52:37.402Z,11.35
2023-01-23T10:55:45.509Z,12.52
2023-01-23T10:58:47.917Z,11.30
2023-01-23T11:02:14.988Z,11.55
2023-01-23T11:05:46.858Z,12.02
2023-01-23T11:09:00.193Z,10.50
2023-01-23T11:12:04.872Z,13.68
2023-01-23T11:15:27.099Z,11.55
2023-01-23T11:18:52.255Z,12.73
2023-01-23T11:22:00.057Z,12.27
2023-01-23T11:25:37.038Z,10.25
2023-01-23T11:28:50.207Z,11.85
2023-01-23T11:32:14.022Z,11.85
2023-01-23T11:35:25.161Z,12.38
2023-01-23T11:38:31.779Z,12.18
2023-01-23T11:41:35.878Z,11.52
2023-01-23T11:44:45.986Z,12.38
2023-01-23T11:47:59.374Z,13.55
2023-01-23T12:03:29.236Z,11.88
2023-01-23T12:06:53.100Z,11.35
2023-01-23T12:10:04.388Z,11.43
2023-01-23T12:13:29.670Z,11.20
2023-01-23T12:16:47.019Z,11.82
2023-01-23T12:20:17.191Z,11.43
2023-01-23T12:23:45.330Z,13.82
2023-01-23T12:27:12.633Z,11.55
2023-01-23T12:33:33.509Z,11.07
2023-01-23T12:37:19.222Z,11.00
2023-01-23T12:41:02.944Z,13.00
2023-01-23T12:44:20.600Z,11.63
2023-01-23T12:47:41.288Z,13.07
2023-01-23T12:50:56.443Z,12.02
2023-01-23T12:54:04.545Z,11.77
2023-01-23T12:57:09.617Z,11.85
2023-01-23T13:00:30.424Z,12.02
2023-01-23T13:03:46.835Z,12.68
2023-01-23T13:06:58.333Z,12.70
2023-01-23T13:10:38.474Z,15.40
2023-01-23T13:13:41.195Z,13.13
2023-01-23T13:16:48.903Z,11.35
2023-01-23T13:19:51.130Z,12.45
2023-01-23T13:22:53.258Z,11.88
2023-01-23T13:26:17.117Z,12.85
2023-01-23T13:29:57.530Z,13.25
2023-01-23T13:33:01.617Z,12.93
2023-01-23T13:36:34.592Z,12.63
2023-01-23T13:39:38.126Z,13.35
2023-01-23T13:42:40.238Z,12.07
2023-01-23T13:45:45.453Z,12.40
2023-01-23T14:22:43.694Z,13.75
2023-01-23T14:25:46.045Z,11.73
2023-01-23T14:29:03.806Z,13.00
2023-01-23T14:32:06.185Z,12.57
2023-01-23T14:35:23.731Z,11.02
2023-01-23T14:38:33.404Z,11.05
2023-01-23T14:41:41.359Z,8.95
2023-01-23T14:44:47.047Z,10.10
2023-01-23T14:47:59.717Z,10.13
2023-01-23T14:51:23.284Z,9.57
2023-01-23T14:54:29.614Z,12.75
2023-01-23T14:57:36.184Z,13.07
2023-01-23T15:00:40.034Z,15.05
2023-01-23T15:03:55.447Z,13.32
2023-01-23T15:06:59.847Z,13.13
2023-01-23T15:10:02.341Z,14.40
2023-01-23T15:13:11.938Z,14.75
2023-01-23T15:16:23.328Z,15.25
2023-01-23T15:19:26.301Z,16.20
2023-01-23T15:22:31.403Z,14.30
2023-01-23T15:25:33.677Z,14.32
2023-01-23T15:28:59.130Z,13.90
2023-01-23T15:32:01.648Z,14.43
2023-01-23T15:35:16.495Z,12.52
2023-01-23T15:38:18.628Z,13.57
2023-01-23T15:41:33.863Z,14.05
2023-01-23T15:44:36.368Z,14.85
2023-01-23T15:47:41.775Z,13.25
2023-01-23T15:53:57.032Z,13.10
2023-01-23T15:57:07.935Z,12.55
2023-01-23T16:00:25.548Z,15.68
2023-01-23T16:03:27.511Z,13.75
2023-01-23T16:06:29.368Z,13.57
2023-01-23T16:09:35.889Z,14.02
2023-01-23T16:12:37.937Z,15.13
2023-01-23T16:15:40.056Z,14.82
2023-01-23T16:18:42.165Z,18.23
2023-01-23T16:21:47.758Z,17.10
2023-01-23T16:24:58.639Z,13.27
2023-01-23T16:28:00.684Z,12.18
2023-01-23T16:31:02.556Z,13.77
2023-01-23T16:34:04.608Z,16.40
2023-01-23T16:37:11.401Z,15.30
2023-01-23T16:40:18.779Z,15.73
2023-01-23T16:43:21.830Z,14.05
2023-01-23T16:49:25.601Z,15.07
2023-01-23T16:52:27.536Z,15.07
2023-01-23T16:55:38.549Z,16.58
2023-01-23T16:58:41.183Z,16.02
2023-01-23T17:01:58.369Z,13.18
2023-01-23T17:05:00.269Z,15.13
2023-01-23T17:08:18.136Z,14.27
2023-01-23T17:11:26.941Z,14.43
2023-01-23T17:14:30.831Z,13.65
2023-01-23T17:17:36.691Z,12.35
2023-01-23T17:20:39.852Z,14.05
2023-01-23T17:23:41.943Z,14.18
2023-01-23T17:26:44.585Z,13.43
2023-01-23T17:29:49.178Z,14.70
2023-01-23T17:32:56.997Z,11.57
2023-01-23T17:36:00.890Z,12.80
2023-01-23T17:39:03.136Z,12.88
2023-01-23T17:42:05.126Z,13.73
2023-01-23T17:45:08.651Z,13.10
2023-01-23T17:48:16.545Z,12.50
2023-01-23T17:51:21.818Z,10.90
2023-01-23T17:54:23.837Z,10.88
2023-01-23T17:57:25.745Z,14.05
2023-01-23T18:00:27.663Z,12.93
2023-01-23T18:03:29.535Z,12.73
2023-01-23T18:06:31.542Z,13.00
2023-01-23T18:09:33.949Z,14.75
2023-01-23T18:13:14.015Z,17.63
2023-01-23T18:16:28.468Z,19.25
2023-01-23T18:19:30.787Z,18.35
2023-01-23T18:22:33.031Z,14.00
2023-01-23T18:25:35.822Z,14.50
2023-01-23T18:32:33.293Z,11.38
2023-01-23T18:36:00.306Z,14.30
2023-01-23T18:39:42.353Z,14.18
2023-01-23T18:42:48.343Z,16.33
2023-01-23T18:48:58.529Z,14.27
2023-01-23T18:52:11.887Z,14.82
2023-01-23T18:55:28.998Z,16.48
2023-01-23T18:59:06.241Z,13.90
2023-01-23T19:02:47.552Z,14.70
2023-01-23T19:05:49.686Z,15.95
2023-01-23T19:08:53.148Z,13.38
2023-01-23T19:12:29.259Z,14.65
2023-01-23T19:15:41.529Z,14.73
2023-01-23T19:18:48.860Z,14.18
2023-01-23T19:21:51.619Z,13.77
2023-01-23T19:24:53.780Z,16.15
2023-01-23T19:27:57.987Z,16.13
2023-01-23T19:31:00.304Z,15.40
2023-01-23T19:34:05.767Z,14.73
2023-01-23T19:37:07.653Z,12.85
2023-01-23T19:40:16.793Z,14.27
2023-01-23T19:43:18.960Z,16.23
2023-01-23T19:46:24.462Z,12.88
2023-01-23T19:49:26.551Z,11.90
2023-01-23T19:52:28.582Z,12.63
2023-01-23T19:55:33.299Z,13.13
2023-01-23T19:58:35.274Z,14.70
2023-01-23T20:01:43.446Z,15.65
2023-01-23T20:04:46.197Z,16.65
2023-01-23T20:07:54.493Z,16.58
2023-01-23T20:10:56.452Z,15.93
2023-01-23T20:13:58.476Z,16.25
2023-01-23T20:17:00.635Z,15.02
2023-01-23T20:20:03.935Z,12.20
2023-01-23T20:23:05.911Z,15.52
2023-01-23T20:26:10.591Z,16.02
2023-01-23T20:29:12.446Z,15.27
2023-01-23T20:32:14.314Z,14.65
2023-01-23T20:35:16.320Z,14.90
2023-01-23T20:38:19.039Z,13.65
2023-01-23T20:41:21.381Z,13.10
2023-01-23T20:44:23.460Z,13.07
2023-01-23T20:47:25.365Z,13.88
2023-01-23T20:50:27.255Z,11.85
2023-01-23T20:53:29.211Z,13.93
2023-01-23T20:56:31.312Z,13.23
2023-01-23T20:59:33.342Z,12.60
2023-01-23T21:02:35.553Z,11.82
2023-01-23T21:05:37.714Z,14.32
2023-01-23T21:08:40.338Z,13.90
2023-01-23T21:11:42.311Z,16.30
2023-01-23T21:14:44.238Z,10.90
2023-01-23T21:17:46.287Z,15.73
2023-01-23T21:20:48.178Z,15.52
2023-01-23T21:23:52.432Z,14.10
2023-01-23T21:26:54.779Z,14.43
2023-01-23T21:29:56.781Z,14.00
2023-01-23T21:32:58.956Z,13.50
2023-01-23T21:36:02.215Z,14.85
2023-01-23T21:39:05.448Z,14.75
2023-01-23T21:45:09.768Z,11.82
2023-01-23T21:48:11.919Z,13.40
2023-01-23T21:51:15.613Z,12.90
2023-01-23T21:54:17.580Z,11.65
2023-01-23T21:57:19.600Z,14.02
2023-01-23T22:00:21.833Z,11.68
2023-01-23T22:03:24.005Z,12.65
2023-01-23T22:06:26.757Z,15.98
2023-01-23T22:09:28.808Z,11.70
2023-01-23T22:12:30.869Z,13.27
2023-01-23T22:15:35.563Z,13.05
2023-01-23T22:18:37.916Z,12.77
2023-01-23T22:21:39.875Z,14.75
2023-01-23T22:24:42.257Z,11.65
2023-01-23T22:27:44.187Z,12.23
2023-01-23T22:30:46.259Z,13.63
2023-01-23T22:33:48.577Z,12.68
2023-01-23T22:36:50.695Z,14.63
2023-01-23T22:39:52.987Z,13.63
2023-01-23T22:42:55.591Z,12.32
2023-01-23T22:46:16.170Z,12.90
2023-01-23T22:49:18.214Z,12.32
2023-01-23T22:52:20.413Z,12.40
2023-01-23T22:55:22.596Z,12.05
2023-01-23T22:58:25.474Z,14.45
2023-01-23T23:01:28.333Z,12.68
2023-01-23T23:04:30.587Z,12.80
2023-01-23T23:07:33.593Z,13.07
2023-01-23T23:13:39.621Z,13.55
2023-01-23T23:16:41.792Z,12.88
2023-01-23T23:19:43.840Z,11.27
2023-01-23T23:22:46.075Z,14.35
2023-01-23T23:25:52.692Z,12.15
2023-01-23T23:28:55.602Z,14.60
2023-01-23T23:31:57.944Z,12.85
2023-01-23T23:35:00.019Z,14.35
2023-01-23T23:38:02.115Z,13.75
2023-01-23T23:41:11.177Z,13.63
2023-01-23T23:44:13.216Z,14.52
2023-01-23T23:47:15.349Z,13.75
2023-01-23T23:50:17.677Z,14.35
2023-01-23T23:53:20.002Z,11.77
2023-01-23T23:56:24.605Z,13.23
2023-01-23T23:59:26.903Z,13.02
